createdAt,value
2023-03-05T00:00:19.282Z,29.72
2023-03-05T00:01:20.332Z,28.24
2023-03-05T00:02:19.372Z,30.46
2023-03-05T00:03:20.436Z,28.32
2023-03-05T00:04:20.513Z,31.30
2023-03-05T00:05:20.487Z,28.43
2023-03-05T00:06:20.506Z,28.64
2023-03-05T00:07:20.546Z,31.65
2023-03-05T00:08:20.615Z,33.65
2023-03-05T00:09:19.650Z,30.60
2023-03-05T00:10:19.698Z,27.53
2023-03-05T00:11:20.733Z,27.03
2023-03-05T00:12:20.766Z,29.69
2023-03-05T00:13:20.818Z,28.58
2023-03-05T00:14:20.850Z,29.43
2023-03-05T00:15:20.897Z,27.87
2023-03-05T00:16:21.061Z,29.83
2023-03-05T00:17:20.957Z,28.00
2023-03-05T00:18:20.997Z,26.86
2023-03-05T00:19:21.036Z,27.93
2023-03-05T00:20:21.097Z,30.14
2023-03-05T00:21:21.171Z,28.83
2023-03-05T00:22:21.148Z,27.04
2023-03-05T00:23:20.173Z,28.19
2023-03-05T00:24:21.233Z,25.98
2023-03-05T00:25:21.673Z,31.14
2023-03-05T00:26:21.333Z,30.05
2023-03-05T00:27:21.367Z,30.12
2023-03-05T00:28:20.430Z,29.32
2023-03-05T00:29:21.468Z,30.85
2023-03-05T00:30:20.524Z,29.50
2023-03-05T00:31:20.642Z,25.18
2023-03-05T00:32:21.660Z,28.75
2023-03-05T00:33:21.631Z,32.03
2023-03-05T00:34:21.668Z,31.79
2023-03-05T00:35:21.877Z,28.06
2023-03-05T00:36:21.798Z,32.14
2023-03-05T00:37:21.813Z,31.70
2023-03-05T00:38:21.852Z,28.13
2023-03-05T00:39:21.883Z,29.34
2023-03-05T00:40:22.063Z,27.77
2023-03-05T00:41:20.948Z,29.98
2023-03-05T00:42:21.987Z,28.97
2023-03-05T00:43:22.041Z,32.78
2023-03-05T00:44:21.071Z,30.25
2023-03-05T00:45:21.113Z,32.43
2023-03-05T00:46:22.187Z,31.88
2023-03-05T00:47:22.170Z,30.52
2023-03-05T00:48:22.201Z,28.48
2023-03-05T00:49:21.267Z,30.53
2023-03-05T00:50:22.303Z,30.37
2023-03-05T00:51:22.323Z,33.58
2023-03-05T00:52:22.358Z,30.02
2023-03-05T00:53:21.374Z,28.44
2023-03-05T00:54:22.403Z,28.15
2023-03-05T00:55:22.439Z,30.89
2023-03-05T00:56:22.449Z,31.64
2023-03-05T00:57:22.479Z,29.87
2023-03-05T00:58:21.512Z,31.69
2023-03-05T00:59:22.541Z,31.60
2023-03-05T01:00:22.589Z,29.80
2023-03-05T01:01:22.659Z,30.27
2023-03-05T01:02:22.613Z,30.47
2023-03-05T01:03:21.649Z,28.07
2023-03-05T01:04:22.660Z,31.73
2023-03-05T01:05:21.743Z,30.90
2023-03-05T01:06:21.735Z,31.93
2023-03-05T01:07:22.795Z,28.62
2023-03-05T01:08:22.798Z,31.41
2023-03-05T01:09:22.784Z,31.56
2023-03-05T01:10:21.814Z,30.77
2023-03-05T01:11:21.833Z,30.21
2023-03-05T01:12:21.838Z,30.89
2023-03-05T01:13:21.847Z,32.05
2023-03-05T01:14:22.838Z,32.40
2023-03-05T01:15:22.863Z,29.51
2023-03-05T01:16:23.009Z,30.47
2023-03-05T01:17:22.866Z,27.43
2023-03-05T01:18:22.861Z,31.29
2023-03-05T01:19:22.881Z,29.99
2023-03-05T01:20:22.912Z,31.68
2023-03-05T01:21:21.898Z,31.29
2023-03-05T01:22:22.913Z,32.93
2023-03-05T01:23:21.913Z,30.45
2023-03-05T01:24:22.958Z,29.14
2023-03-05T01:25:22.942Z,30.16
2023-03-05T01:26:22.901Z,27.06
2023-03-05T01:27:21.912Z,31.32
2023-03-05T01:28:21.909Z,28.98
2023-03-05T01:29:22.923Z,30.44
2023-03-05T01:30:22.945Z,32.24
2023-03-05T01:31:21.976Z,29.21
2023-03-05T01:32:22.993Z,32.19
2023-03-05T01:33:22.947Z,29.24
2023-03-05T01:34:22.933Z,29.19
2023-03-05T01:35:23.015Z,32.47
2023-03-05T01:36:22.920Z,29.67
2023-03-05T01:37:21.921Z,30.20
2023-03-05T01:38:22.939Z,28.78
2023-03-05T01:39:22.941Z,30.15
2023-03-05T01:40:21.986Z,31.28
2023-03-05T01:41:22.977Z,27.89
2023-03-05T01:42:22.961Z,29.72
2023-03-05T01:43:22.999Z,29.07
2023-03-05T01:44:23.018Z,29.48
2023-03-05T01:45:22.988Z,29.56
2023-03-05T01:46:22.998Z,30.90
2023-03-05T01:47:22.995Z,29.93
2023-03-05T01:48:21.998Z,30.13
2023-03-05T01:49:22.001Z,30.36
2023-03-05T01:50:22.004Z,32.64
2023-03-05T01:51:23.004Z,32.66
2023-03-05T01:52:23.003Z,29.25
2023-03-05T01:53:22.988Z,28.91
2023-03-05T01:54:23.025Z,31.08
2023-03-05T01:55:23.008Z,32.62
2023-03-05T01:56:23.042Z,30.66
2023-03-05T01:57:23.016Z,27.98
2023-03-05T01:58:22.996Z,25.85
2023-03-05T01:59:22.989Z,32.02
2023-03-05T02:00:22.994Z,29.48
2023-03-05T02:01:22.079Z,30.68
2023-03-05T02:02:22.016Z,32.26
2023-03-05T02:03:22.986Z,29.23
2023-03-05T02:04:22.981Z,29.74
2023-03-05T02:05:21.958Z,31.50
2023-03-05T02:06:22.974Z,31.87
2023-03-05T02:07:22.964Z,31.49
2023-03-05T02:08:22.988Z,32.45
2023-03-05T02:09:21.960Z,31.44
2023-03-05T02:10:22.944Z,29.22
2023-03-05T02:11:22.966Z,30.42
2023-03-05T02:12:22.981Z,29.89
2023-03-05T02:13:22.940Z,30.89
2023-03-05T02:14:21.939Z,29.41
2023-03-05T02:15:22.957Z,32.68
2023-03-05T02:16:23.010Z,32.21
2023-03-05T02:17:21.941Z,30.98
2023-03-05T02:18:22.939Z,30.71
2023-03-05T02:19:22.930Z,35.10
2023-03-05T02:20:22.938Z,32.39
2023-03-05T02:21:22.987Z,31.29
2023-03-05T02:22:22.905Z,29.78
2023-03-05T02:23:22.923Z,28.99
2023-03-05T02:24:21.908Z,33.70
2023-03-05T02:25:21.914Z,28.93
2023-03-05T02:26:22.939Z,32.04
2023-03-05T02:27:22.892Z,29.43
2023-03-05T02:28:22.915Z,29.89
2023-03-05T02:29:22.879Z,26.83
2023-03-05T02:30:22.888Z,32.20
2023-03-05T02:31:22.983Z,31.17
2023-03-05T02:32:21.909Z,31.03
2023-03-05T02:33:22.899Z,31.63
2023-03-05T02:34:22.875Z,30.37
2023-03-05T02:35:23.011Z,29.74
2023-03-05T02:36:21.879Z,30.87
2023-03-05T02:37:22.896Z,30.30
2023-03-05T02:38:22.869Z,33.24
2023-03-05T02:39:22.861Z,32.19
2023-03-05T02:40:22.881Z,29.46
2023-03-05T02:41:21.857Z,30.26
2023-03-05T02:42:22.872Z,34.43
2023-03-05T02:43:22.870Z,30.50
2023-03-05T02:44:22.883Z,34.49
2023-03-05T02:45:22.975Z,32.00
2023-03-05T02:46:22.861Z,32.42
2023-03-05T02:47:22.858Z,31.68
2023-03-05T02:48:22.859Z,32.72
2023-03-05T02:49:22.879Z,30.84
2023-03-05T02:50:22.850Z,31.74
2023-03-05T02:51:22.863Z,28.86
2023-03-05T02:52:22.862Z,31.98
2023-03-05T02:53:22.845Z,31.63
2023-03-05T02:54:21.852Z,34.27
2023-03-05T02:55:22.862Z,31.04
2023-03-05T02:56:21.859Z,30.89
2023-03-05T02:57:22.849Z,33.08
2023-03-05T02:58:22.847Z,32.45
2023-03-05T02:59:22.842Z,30.29
2023-03-05T03:00:22.879Z,29.20
2023-03-05T03:01:22.956Z,33.41
2023-03-05T03:02:22.868Z,29.50
2023-03-05T03:03:23.000Z,30.75
2023-03-05T03:04:21.842Z,31.09
2023-03-05T03:05:22.982Z,29.01
2023-03-05T03:06:22.855Z,29.38
2023-03-05T03:07:22.871Z,31.27
2023-03-05T03:08:22.867Z,29.73
2023-03-05T03:09:21.851Z,31.51
2023-03-05T03:10:21.869Z,32.32
2023-03-05T03:11:22.879Z,30.75
2023-03-05T03:12:21.890Z,28.44
2023-03-05T03:13:22.883Z,31.78
2023-03-05T03:14:21.886Z,28.36
2023-03-05T03:15:22.879Z,29.83
2023-03-05T03:16:23.046Z,28.72
2023-03-05T03:17:22.894Z,31.64
2023-03-05T03:18:22.907Z,30.47
2023-03-05T03:19:22.926Z,29.55
2023-03-05T03:20:22.905Z,31.11
2023-03-05T03:21:22.923Z,27.63
2023-03-05T03:22:22.926Z,29.64
2023-03-05T03:23:22.931Z,32.95
2023-03-05T03:24:23.058Z,29.27
2023-03-05T03:25:22.983Z,31.10
2023-03-05T03:26:22.980Z,30.12
2023-03-05T03:27:21.994Z,30.03
2023-03-05T03:28:22.987Z,32.18
2023-03-05T03:29:22.988Z,29.88
2023-03-05T03:30:22.000Z,31.16
2023-03-05T03:31:23.035Z,32.25
2023-03-05T03:32:22.086Z,32.60
2023-03-05T03:33:23.034Z,31.49
2023-03-05T03:34:23.041Z,28.71
2023-03-05T03:35:22.088Z,31.50
2023-03-05T03:36:22.079Z,30.28
2023-03-05T03:37:23.109Z,29.86
2023-03-05T03:38:23.094Z,31.65
2023-03-05T03:39:23.119Z,29.77
2023-03-05T03:40:22.121Z,28.94
2023-03-05T03:41:22.129Z,31.12
2023-03-05T03:42:23.158Z,30.03
2023-03-05T03:43:23.150Z,28.99
2023-03-05T03:44:23.159Z,29.47
2023-03-05T03:45:23.189Z,30.27
2023-03-05T03:46:23.346Z,30.68
2023-03-05T03:47:23.191Z,31.29
2023-03-05T03:48:23.203Z,31.98
2023-03-05T03:49:22.181Z,30.01
2023-03-05T03:50:23.199Z,33.11
2023-03-05T03:51:23.238Z,32.16
2023-03-05T03:52:23.334Z,28.74
2023-03-05T03:53:23.204Z,31.08
2023-03-05T03:54:23.233Z,30.74
2023-03-05T03:55:23.222Z,32.67
2023-03-05T03:56:23.243Z,29.75
2023-03-05T03:57:23.283Z,31.59
2023-03-05T03:58:23.284Z,28.18
2023-03-05T03:59:23.260Z,30.27
2023-03-05T04:00:22.276Z,32.21
2023-03-05T04:01:23.315Z,29.74
2023-03-05T04:02:23.351Z,31.59
2023-03-05T04:03:22.288Z,28.35
2023-03-05T04:04:23.329Z,28.06
2023-03-05T04:05:22.301Z,30.65
2023-03-05T04:06:23.307Z,29.68
2023-03-05T04:07:23.341Z,29.41
2023-03-05T04:08:23.328Z,30.24
2023-03-05T04:09:23.330Z,29.98
2023-03-05T04:10:22.351Z,30.74
2023-03-05T04:11:22.354Z,29.73
2023-03-05T04:12:23.385Z,30.00
2023-03-05T04:13:23.388Z,31.16
2023-03-05T04:14:23.383Z,28.00
2023-03-05T04:15:23.394Z,32.34
2023-03-05T04:16:23.484Z,30.95
2023-03-05T04:17:22.413Z,31.62
2023-03-05T04:18:23.432Z,32.44
2023-03-05T04:19:22.445Z,27.36
2023-03-05T04:20:23.477Z,32.01
2023-03-05T04:21:23.459Z,32.18
2023-03-05T04:22:22.486Z,29.71
2023-03-05T04:23:22.498Z,31.37
2023-03-05T04:24:23.745Z,31.48
2023-03-05T04:25:23.528Z,33.77
2023-03-05T04:26:23.540Z,32.29
2023-03-05T04:27:23.543Z,28.11
2023-03-05T04:28:23.570Z,28.02
2023-03-05T04:29:23.578Z,32.00
2023-03-05T04:30:23.600Z,31.28
2023-03-05T04:31:23.768Z,30.28
2023-03-05T04:32:23.709Z,30.88
2023-03-05T04:33:22.647Z,31.34
2023-03-05T04:34:22.646Z,28.53
2023-03-05T04:35:22.705Z,30.98
2023-03-05T04:36:23.707Z,27.98
2023-03-05T04:37:23.695Z,29.88
2023-03-05T04:38:23.709Z,29.05
2023-03-05T04:39:22.710Z,29.23
2023-03-05T04:40:23.716Z,30.75
2023-03-05T04:41:23.755Z,29.89
2023-03-05T04:42:23.764Z,30.68
2023-03-05T04:43:23.768Z,28.80
2023-03-05T04:44:23.795Z,30.60
2023-03-05T04:45:23.807Z,26.16
2023-03-05T04:46:23.866Z,29.69
2023-03-05T04:47:22.850Z,27.31
2023-03-05T04:48:23.866Z,30.42
2023-03-05T04:49:23.891Z,31.40
2023-03-05T04:50:23.923Z,29.31
2023-03-05T04:51:23.939Z,32.12
2023-03-05T04:52:23.996Z,28.60
2023-03-05T04:53:23.023Z,32.66
2023-03-05T04:54:22.986Z,27.48
2023-03-05T04:55:24.001Z,29.66
2023-03-05T04:56:23.013Z,27.24
2023-03-05T04:57:24.189Z,29.96
2023-03-05T04:58:23.139Z,28.33
2023-03-05T04:59:23.081Z,29.69
2023-03-05T05:00:24.100Z,30.62
2023-03-05T05:01:23.162Z,29.59
2023-03-05T05:02:23.160Z,28.83
2023-03-05T05:03:24.208Z,31.45
2023-03-05T05:04:24.205Z,28.53
2023-03-05T05:05:24.214Z,30.94
2023-03-05T05:06:24.270Z,31.39
2023-03-05T05:07:24.247Z,31.22
2023-03-05T05:08:24.305Z,29.88
2023-03-05T05:09:24.346Z,27.78
2023-03-05T05:10:24.313Z,28.90
2023-03-05T05:11:24.337Z,30.71
2023-03-05T05:12:24.355Z,29.19
2023-03-05T05:13:24.387Z,29.42
2023-03-05T05:14:24.424Z,30.59
2023-03-05T05:15:24.473Z,31.53
2023-03-05T05:16:24.519Z,27.90
2023-03-05T05:17:24.495Z,32.89
2023-03-05T05:18:24.506Z,30.42
2023-03-05T05:19:24.658Z,31.59
2023-03-05T05:20:23.536Z,30.48
2023-03-05T05:21:24.548Z,32.20
2023-03-05T05:22:24.589Z,28.42
2023-03-05T05:23:24.618Z,29.43
2023-03-05T05:24:24.649Z,27.90
2023-03-05T05:25:23.635Z,32.02
2023-03-05T05:26:23.657Z,29.43
2023-03-05T05:27:24.685Z,31.06
2023-03-05T05:28:24.740Z,30.39
2023-03-05T05:29:24.799Z,27.77
2023-03-05T05:30:24.753Z,28.08
2023-03-05T05:31:24.837Z,30.53
2023-03-05T05:32:24.877Z,29.67
2023-03-05T05:33:24.837Z,29.06
2023-03-05T05:34:24.862Z,28.92
2023-03-05T05:35:24.973Z,31.11
2023-03-05T05:36:24.916Z,30.07
2023-03-05T05:37:24.935Z,31.11
2023-03-05T05:38:24.976Z,28.25
2023-03-05T05:39:25.007Z,31.16
2023-03-05T05:40:25.080Z,29.72
2023-03-05T05:41:25.066Z,28.83
2023-03-05T05:42:25.115Z,27.85
2023-03-05T05:43:25.130Z,30.42
2023-03-05T05:44:24.137Z,29.98
2023-03-05T05:45:25.329Z,30.55
2023-03-05T05:46:25.248Z,29.43
2023-03-05T05:47:25.239Z,29.49
2023-03-05T05:48:25.264Z,28.78
2023-03-05T05:49:25.279Z,28.68
2023-03-05T05:50:25.304Z,30.71
2023-03-05T05:51:25.360Z,29.69
2023-03-05T05:52:25.361Z,27.85
2023-03-05T05:53:25.401Z,32.26
2023-03-05T05:54:25.423Z,31.18
2023-03-05T05:55:25.440Z,29.19
2023-03-05T05:56:25.532Z,30.96
2023-03-05T05:57:24.488Z,28.08
2023-03-05T05:58:25.532Z,29.08
2023-03-05T05:59:25.537Z,28.43
2023-03-05T06:00:25.576Z,33.72
2023-03-05T06:01:25.601Z,30.49
2023-03-05T06:02:25.614Z,29.70
2023-03-05T06:03:25.662Z,28.45
2023-03-05T06:04:25.675Z,28.85
2023-03-05T06:05:25.691Z,28.24
2023-03-05T06:06:25.722Z,30.83
2023-03-05T06:07:25.748Z,30.63
2023-03-05T06:08:24.768Z,28.84
2023-03-05T06:09:25.810Z,27.62
2023-03-05T06:10:25.838Z,32.32
2023-03-05T06:11:25.855Z,30.97
2023-03-05T06:12:25.907Z,33.84
2023-03-05T06:13:25.903Z,29.74
2023-03-05T06:14:25.956Z,27.69
2023-03-05T06:15:25.966Z,30.42
2023-03-05T06:16:26.047Z,31.31
2023-03-05T06:17:30.599Z,31.61
2023-03-05T06:18:25.999Z,31.83
2023-03-05T06:19:25.005Z,32.18
2023-03-05T06:20:25.997Z,31.95
2023-03-05T06:21:24.982Z,31.73
2023-03-05T06:22:25.985Z,32.50
2023-03-05T06:23:25.986Z,30.52
2023-03-05T06:24:25.968Z,30.42
2023-03-05T06:25:24.959Z,32.97
2023-03-05T06:26:25.965Z,29.07
2023-03-05T06:27:25.976Z,29.76
2023-03-05T06:28:25.950Z,29.23
2023-03-05T06:29:25.986Z,31.38
2023-03-05T06:30:26.011Z,27.18
2023-03-05T06:31:26.078Z,32.32
2023-03-05T06:32:25.921Z,31.25
2023-03-05T06:33:25.899Z,30.28
2023-03-05T06:34:25.893Z,33.51
2023-03-05T06:35:24.998Z,32.33
2023-03-05T06:36:25.885Z,31.07
2023-03-05T06:37:25.866Z,27.56
2023-03-05T06:38:25.871Z,29.43
2023-03-05T06:39:25.844Z,27.42
2023-03-05T06:40:25.834Z,28.18
2023-03-05T06:41:25.849Z,31.53
2023-03-05T06:42:25.839Z,30.72
2023-03-05T06:43:25.815Z,32.94
2023-03-05T06:44:24.830Z,28.36
2023-03-05T06:45:24.817Z,31.46
2023-03-05T06:46:25.802Z,27.88
2023-03-05T06:47:25.349Z,30.27
2023-03-05T06:48:25.788Z,32.54
2023-03-05T06:49:25.796Z,30.79
2023-03-05T06:50:25.776Z,27.71
2023-03-05T06:51:25.762Z,30.45
2023-03-05T06:52:25.780Z,32.48
2023-03-05T06:53:25.756Z,31.39
2023-03-05T06:54:25.743Z,31.06
2023-03-05T06:55:25.748Z,32.87
2023-03-05T06:56:25.749Z,30.58
2023-03-05T06:57:25.735Z,33.36
2023-03-05T06:58:25.756Z,32.67
2023-03-05T06:59:25.809Z,30.11
2023-03-05T07:00:25.860Z,29.87
2023-03-05T07:01:25.933Z,30.22
2023-03-05T07:02:25.985Z,30.33
2023-03-05T07:03:25.931Z,29.71
2023-03-05T07:04:26.003Z,29.88
2023-03-05T07:05:26.012Z,31.16
2023-03-05T07:06:25.047Z,33.07
2023-03-05T07:07:26.086Z,32.60
2023-03-05T07:08:26.126Z,31.19
2023-03-05T07:09:25.156Z,35.12
2023-03-05T07:10:26.218Z,32.80
2023-03-05T07:11:26.228Z,34.52
2023-03-05T07:12:26.267Z,30.54
2023-03-05T07:13:26.303Z,34.48
2023-03-05T07:14:26.340Z,33.96
2023-03-05T07:15:26.415Z,31.89
2023-03-05T07:16:26.457Z,32.82
2023-03-05T07:17:26.429Z,33.36
2023-03-05T07:18:25.471Z,37.43
2023-03-05T07:19:26.516Z,34.38
2023-03-05T07:20:26.554Z,33.78
2023-03-05T07:21:26.581Z,32.68
2023-03-05T07:22:26.623Z,35.06
2023-03-05T07:23:26.642Z,31.31
2023-03-05T07:24:26.681Z,32.14
2023-03-05T07:25:26.727Z,34.26
2023-03-05T07:26:26.761Z,33.81
2023-03-05T07:27:26.794Z,36.07
2023-03-05T07:28:26.937Z,36.34
2023-03-05T07:29:26.859Z,34.44
2023-03-05T07:30:25.895Z,36.64
2023-03-05T07:31:27.094Z,34.63
2023-03-05T07:32:27.065Z,34.51
2023-03-05T07:33:27.043Z,34.80
2023-03-05T07:34:27.385Z,36.39
2023-03-05T07:35:27.118Z,35.02
2023-03-05T07:36:26.118Z,35.17
2023-03-05T07:37:26.158Z,34.48
2023-03-05T07:38:27.181Z,34.01
2023-03-05T07:39:27.305Z,35.49
2023-03-05T07:40:27.315Z,35.91
2023-03-05T07:41:27.287Z,34.66
2023-03-05T07:42:27.338Z,35.60
2023-03-05T07:43:26.365Z,37.01
2023-03-05T07:44:27.420Z,39.06
2023-03-05T07:45:27.431Z,33.12
2023-03-05T07:46:27.726Z,37.50
2023-03-05T07:47:27.517Z,37.03
2023-03-05T07:48:27.579Z,37.12
2023-03-05T07:49:27.611Z,35.09
2023-03-05T07:50:27.797Z,38.32
2023-03-05T07:51:27.706Z,35.51
2023-03-05T07:52:27.695Z,37.75
2023-03-05T07:53:26.733Z,37.81
2023-03-05T07:54:27.778Z,36.86
2023-03-05T07:55:27.808Z,37.45
2023-03-05T07:56:27.831Z,38.22
2023-03-05T07:57:27.874Z,34.68
2023-03-05T07:58:27.910Z,37.62
2023-03-05T07:59:27.940Z,36.99
2023-03-05T08:00:27.979Z,36.14
2023-03-05T08:01:28.000Z,34.35
2023-03-05T08:02:28.060Z,37.08
2023-03-05T08:03:28.062Z,38.02
2023-03-05T08:04:28.180Z,36.51
2023-03-05T08:05:28.145Z,35.73
2023-03-05T08:06:28.174Z,35.07
2023-03-05T08:07:28.205Z,36.48
2023-03-05T08:08:28.225Z,38.33
2023-03-05T08:09:28.304Z,35.60
2023-03-05T08:10:28.330Z,39.71
2023-03-05T08:11:28.337Z,40.20
2023-03-05T08:12:28.367Z,36.19
2023-03-05T08:13:28.406Z,42.37
2023-03-05T08:14:28.457Z,41.44
2023-03-05T08:15:27.474Z,38.44
2023-03-05T08:16:28.538Z,40.79
2023-03-05T08:17:28.531Z,38.46
2023-03-05T08:18:28.571Z,39.11
2023-03-05T08:19:28.623Z,37.27
2023-03-05T08:20:28.669Z,38.73
2023-03-05T08:21:28.680Z,36.56
2023-03-05T08:22:28.702Z,37.82
2023-03-05T08:23:28.738Z,39.11
2023-03-05T08:24:28.790Z,40.48
2023-03-05T08:25:28.808Z,39.76
2023-03-05T08:26:28.832Z,40.80
2023-03-05T08:27:28.863Z,36.14
2023-03-05T08:28:28.898Z,39.19
2023-03-05T08:29:27.933Z,35.97
2023-03-05T08:30:28.982Z,39.87
2023-03-05T08:31:29.053Z,37.63
2023-03-05T08:32:29.129Z,39.83
2023-03-05T08:33:30.920Z,42.98
2023-03-05T08:34:29.059Z,41.69
2023-03-05T08:35:28.057Z,43.24
2023-03-05T08:36:29.063Z,40.90
2023-03-05T08:37:29.032Z,39.87
2023-03-05T08:38:29.036Z,40.49
2023-03-05T08:39:29.012Z,38.48
2023-03-05T08:40:29.018Z,44.08
2023-03-05T08:41:29.004Z,38.25
2023-03-05T08:42:29.005Z,37.60
2023-03-05T08:43:28.984Z,41.36
2023-03-05T08:44:29.025Z,39.02
2023-03-05T08:45:28.992Z,39.76
2023-03-05T08:46:29.003Z,37.84
2023-03-05T08:47:28.971Z,38.58
2023-03-05T08:48:28.960Z,36.64
2023-03-05T08:49:28.945Z,42.04
2023-03-05T08:50:27.986Z,39.77
2023-03-05T08:51:28.976Z,36.67
2023-03-05T08:52:28.945Z,40.52
2023-03-05T08:53:28.919Z,41.33
2023-03-05T08:54:28.921Z,46.21
2023-03-05T08:55:28.905Z,37.11
2023-03-05T08:56:28.931Z,39.37
2023-03-05T08:57:27.902Z,36.94
2023-03-05T08:58:28.893Z,41.39
2023-03-05T08:59:28.890Z,39.44
2023-03-05T09:00:28.890Z,37.72
2023-03-05T09:01:28.062Z,39.05
2023-03-05T09:02:28.927Z,40.19
2023-03-05T09:03:28.847Z,41.01
2023-03-05T09:04:27.849Z,39.46
2023-03-05T09:05:28.833Z,39.32
2023-03-05T09:06:27.840Z,39.68
2023-03-05T09:07:27.850Z,39.55
2023-03-05T09:08:28.830Z,39.24
2023-03-05T09:09:28.809Z,42.96
2023-03-05T09:10:28.796Z,39.03
2023-03-05T09:11:27.804Z,40.09
2023-03-05T09:12:28.838Z,40.49
2023-03-05T09:13:28.870Z,38.55
2023-03-05T09:14:28.915Z,45.88
2023-03-05T09:15:28.926Z,39.35
2023-03-05T09:16:29.046Z,37.73
2023-03-05T09:17:29.038Z,39.08
2023-03-05T09:18:29.041Z,45.98
2023-03-05T09:19:29.070Z,39.63
2023-03-05T09:20:29.086Z,42.53
2023-03-05T09:21:29.138Z,42.06
2023-03-05T09:22:29.169Z,42.65
2023-03-05T09:23:29.191Z,43.79
2023-03-05T09:24:29.250Z,36.96
2023-03-05T09:25:29.274Z,39.82
2023-03-05T09:26:29.305Z,40.19
2023-03-05T09:27:29.321Z,38.93
2023-03-05T09:28:29.352Z,41.28
2023-03-05T09:29:29.396Z,40.50
2023-03-05T09:30:28.424Z,37.70
2023-03-05T09:31:29.531Z,43.39
2023-03-05T09:32:29.597Z,39.94
2023-03-05T09:33:29.533Z,41.63
2023-03-05T09:34:29.564Z,39.10
2023-03-05T09:35:28.632Z,41.55
2023-03-05T09:36:29.646Z,39.72
2023-03-05T09:37:29.689Z,40.63
2023-03-05T09:38:29.716Z,41.11
2023-03-05T09:39:29.728Z,40.69
2023-03-05T09:40:29.788Z,41.78
2023-03-05T09:41:29.813Z,39.75
2023-03-05T09:42:28.836Z,39.98
2023-03-05T09:43:29.871Z,40.56
2023-03-05T09:44:29.898Z,45.12
2023-03-05T09:45:29.036Z,41.90
2023-03-05T09:46:29.986Z,41.67
2023-03-05T09:47:30.024Z,38.74
2023-03-05T09:48:29.040Z,44.38
2023-03-05T09:49:30.065Z,42.41
2023-03-05T09:50:30.120Z,41.22
2023-03-05T09:51:29.152Z,42.19
2023-03-05T09:52:30.230Z,39.83
2023-03-05T09:53:30.221Z,45.08
2023-03-05T09:54:30.249Z,42.08
2023-03-05T09:55:30.282Z,45.33
2023-03-05T09:56:30.333Z,44.07
2023-03-05T09:57:30.338Z,41.42
2023-03-05T09:58:29.358Z,40.97
2023-03-05T09:59:29.430Z,41.24
2023-03-05T10:00:30.434Z,44.17
2023-03-05T10:01:30.469Z,42.96
2023-03-05T10:02:30.533Z,43.44
2023-03-05T10:03:30.641Z,43.21
2023-03-05T10:04:30.547Z,42.11
2023-03-05T10:05:30.580Z,43.45
2023-03-05T10:06:30.616Z,40.94
2023-03-05T10:07:30.638Z,44.00
2023-03-05T10:08:30.697Z,43.22
2023-03-05T10:09:30.705Z,40.35
2023-03-05T10:10:30.746Z,38.38
2023-03-05T10:11:30.785Z,41.86
2023-03-05T10:12:30.826Z,40.23
2023-03-05T10:13:30.853Z,44.00
2023-03-05T10:14:30.862Z,45.13
2023-03-05T10:15:32.049Z,43.17
2023-03-05T10:16:31.005Z,44.63
2023-03-05T10:17:30.951Z,41.61
2023-03-05T10:18:30.978Z,39.84
2023-03-05T10:19:31.004Z,41.83
2023-03-05T10:20:31.035Z,42.86
2023-03-05T10:21:31.104Z,41.25
2023-03-05T10:22:30.087Z,43.18
2023-03-05T10:23:31.112Z,41.06
2023-03-05T10:24:30.141Z,41.59
2023-03-05T10:25:31.167Z,37.51
2023-03-05T10:26:30.178Z,40.72
2023-03-05T10:27:30.290Z,41.19
2023-03-05T10:28:31.272Z,42.40
2023-03-05T10:29:31.268Z,40.64
2023-03-05T10:30:31.304Z,41.60
2023-03-05T10:31:31.460Z,39.83
2023-03-05T10:32:31.438Z,40.02
2023-03-05T10:33:32.222Z,38.74
2023-03-05T10:34:31.389Z,41.70
2023-03-05T10:35:31.379Z,42.12
2023-03-05T10:36:31.349Z,44.53
2023-03-05T10:37:30.346Z,40.45
2023-03-05T10:38:30.323Z,42.83
2023-03-05T10:39:31.333Z,38.81
2023-03-05T10:40:31.324Z,41.85
2023-03-05T10:41:31.305Z,40.66
2023-03-05T10:42:31.471Z,41.73
2023-03-05T10:43:31.300Z,38.72
2023-03-05T10:44:30.345Z,39.13
2023-03-05T10:45:31.327Z,39.04
2023-03-05T10:46:31.276Z,42.20
2023-03-05T10:47:31.275Z,41.96
2023-03-05T10:48:31.264Z,41.52
2023-03-05T10:49:31.252Z,39.99
2023-03-05T10:50:31.234Z,42.31
2023-03-05T10:51:31.239Z,42.35
2023-03-05T10:52:30.234Z,44.56
2023-03-05T10:53:31.217Z,43.67
2023-03-05T10:54:31.222Z,43.15
2023-03-05T10:55:31.215Z,43.40
2023-03-05T10:56:31.210Z,41.69
2023-03-05T10:57:31.200Z,42.82
2023-03-05T10:58:31.181Z,42.98
2023-03-05T10:59:31.173Z,42.66
2023-03-05T11:00:31.204Z,43.66
2023-03-05T11:01:31.220Z,44.44
2023-03-05T11:02:31.253Z,44.53
2023-03-05T11:03:30.169Z,46.01
2023-03-05T11:04:31.147Z,43.76
2023-03-05T11:05:31.139Z,45.76
2023-03-05T11:06:31.126Z,44.45
2023-03-05T11:07:30.132Z,45.65
2023-03-05T11:08:31.139Z,46.81
2023-03-05T11:09:31.122Z,44.72
2023-03-05T11:10:30.107Z,46.04
2023-03-05T11:11:31.102Z,45.89
2023-03-05T11:12:30.095Z,44.68
2023-03-05T11:13:31.077Z,45.15
2023-03-05T11:14:31.110Z,46.05
2023-03-05T11:15:30.065Z,45.05
2023-03-05T11:16:31.103Z,42.40
2023-03-05T11:17:30.056Z,44.77
2023-03-05T11:18:31.057Z,45.46
2023-03-05T11:19:31.057Z,43.97
2023-03-05T11:20:30.050Z,43.77
2023-03-05T11:21:31.016Z,45.90
2023-03-05T11:22:31.026Z,45.66
2023-03-05T11:23:31.015Z,43.91
2023-03-05T11:24:31.006Z,46.29
2023-03-05T11:25:31.005Z,45.25
2023-03-05T11:26:30.982Z,45.32
2023-03-05T11:27:30.445Z,44.48
2023-03-05T11:28:33.711Z,46.34
2023-03-05T11:29:30.970Z,46.53
2023-03-05T11:30:30.975Z,46.85
2023-03-05T11:31:30.962Z,46.80
2023-03-05T11:32:30.212Z,46.04
2023-03-05T11:33:30.945Z,45.05
2023-03-05T11:34:30.941Z,47.60
2023-03-05T11:35:30.996Z,46.28
2023-03-05T11:36:31.026Z,46.69
2023-03-05T11:37:30.917Z,47.81
2023-03-05T11:38:30.904Z,45.18
2023-03-05T11:39:30.921Z,45.37
2023-03-05T11:40:30.889Z,47.54
2023-03-05T11:41:30.902Z,44.89
2023-03-05T11:42:31.363Z,46.20
2023-03-05T11:43:30.880Z,48.36
2023-03-05T11:44:30.877Z,46.73
2023-03-05T11:45:30.865Z,42.83
2023-03-05T11:46:30.925Z,41.77
2023-03-05T11:47:29.857Z,45.01
2023-03-05T11:48:30.875Z,44.43
2023-03-05T11:49:31.432Z,45.42
2023-03-05T11:50:29.935Z,47.60
2023-03-05T11:51:29.953Z,46.21
2023-03-05T11:52:31.009Z,43.93
2023-03-05T11:53:31.298Z,45.43
2023-03-05T11:54:31.309Z,42.49
2023-03-05T11:55:29.999Z,46.53
2023-03-05T11:56:31.023Z,44.32
2023-03-05T11:57:31.045Z,45.56
2023-03-05T11:58:30.065Z,42.63
2023-03-05T11:59:30.081Z,45.67
2023-03-05T12:00:30.082Z,45.46
2023-03-05T12:01:31.106Z,45.87
2023-03-05T12:02:31.191Z,46.52
2023-03-05T12:03:31.158Z,42.61
2023-03-05T12:04:31.168Z,46.36
2023-03-05T12:05:31.159Z,45.66
2023-03-05T12:06:30.158Z,43.18
2023-03-05T12:07:31.173Z,45.93
2023-03-05T12:08:30.180Z,45.71
2023-03-05T12:09:30.190Z,44.96
2023-03-05T12:10:31.198Z,45.09
2023-03-05T12:11:31.214Z,42.13
2023-03-05T12:12:31.220Z,45.53
2023-03-05T12:13:31.233Z,44.67
2023-03-05T12:14:31.232Z,43.22
2023-03-05T12:15:31.240Z,45.53
2023-03-05T12:16:31.369Z,41.23
2023-03-05T12:17:31.246Z,46.76
2023-03-05T12:18:31.255Z,45.15
2023-03-05T12:19:31.265Z,46.72
2023-03-05T12:20:31.407Z,45.07
2023-03-05T12:21:31.285Z,46.07
2023-03-05T12:22:31.298Z,47.23
2023-03-05T12:23:31.299Z,45.39
2023-03-05T12:24:30.314Z,47.40
2023-03-05T12:25:31.314Z,43.39
2023-03-05T12:26:31.325Z,45.13
2023-03-05T12:27:31.328Z,44.45
2023-03-05T12:28:31.347Z,47.05
2023-03-05T12:29:30.352Z,43.09
2023-03-05T12:30:31.348Z,43.66
2023-03-05T12:31:31.413Z,45.21
2023-03-05T12:32:31.497Z,45.41
2023-03-05T12:33:31.393Z,42.83
2023-03-05T12:34:31.372Z,44.09
2023-03-05T12:35:30.452Z,44.40
2023-03-05T12:36:30.394Z,46.19
2023-03-05T12:37:31.404Z,45.36
2023-03-05T12:38:31.396Z,42.68
2023-03-05T12:39:31.393Z,44.32
2023-03-05T12:40:30.430Z,44.80
2023-03-05T12:41:33.023Z,43.11
2023-03-05T12:42:30.614Z,42.24
2023-03-05T12:43:31.635Z,42.07
2023-03-05T12:44:30.605Z,44.57
2023-03-05T12:45:30.651Z,43.80
2023-03-05T12:46:30.706Z,44.65
2023-03-05T12:47:31.621Z,45.28
2023-03-05T12:48:30.664Z,44.08
2023-03-05T12:49:31.629Z,44.23
2023-03-05T12:50:30.657Z,43.20
2023-03-05T12:51:31.671Z,43.32
2023-03-05T12:52:31.688Z,45.16